createdAt,value
2019-03-16T00:01:21.223Z,6.70
2019-03-16T00:03:22.934Z,6.70
2019-03-16T00:05:24.761Z,6.70
2019-03-16T00:07:32.882Z,6.70
2019-03-16T00:09:30.155Z,6.70
2019-03-16T00:11:31.815Z,6.70
2019-03-16T00:13:34.138Z,6.70
2019-03-16T00:15:36.125Z,6.70
2019-03-16T00:17:37.986Z,6.70
2019-03-16T00:19:39.852Z,6.60
2019-03-16T00:21:41.641Z,6.60
2019-03-16T00:23:43.328Z,6.60
2019-03-16T00:25:45.216Z,6.60
2019-03-16T00:27:47.115Z,6.60
2019-03-16T00:29:48.761Z,6.60
2019-03-16T00:31:51.416Z,6.60
2019-03-16T00:33:53.220Z,6.60
2019-03-16T00:35:55.001Z,6.60
2019-03-16T00:37:56.973Z,6.60
2019-03-16T00:39:58.754Z,6.60
2019-03-16T00:42:00.547Z,6.60
2019-03-16T00:44:02.391Z,6.60
2019-03-16T00:46:04.042Z,6.60
2019-03-16T00:48:06.087Z,6.50
2019-03-16T00:50:12.553Z,6.50
2019-03-16T00:52:14.201Z,6.50
2019-03-16T00:54:16.108Z,6.40
2019-03-16T00:56:17.770Z,6.40
2019-03-16T00:58:19.511Z,6.50
2019-03-16T01:00:21.286Z,6.50
2019-03-16T01:02:27.270Z,6.50
2019-03-16T01:04:26.526Z,6.50
2019-03-16T01:06:28.369Z,6.40
2019-03-16T01:08:30.243Z,6.40
2019-03-16T01:10:32.004Z,6.40
2019-03-16T01:12:33.889Z,6.40
2019-03-16T01:14:35.788Z,6.30
2019-03-16T01:16:37.534Z,6.30
2019-03-16T01:18:39.296Z,6.30
2019-03-16T01:20:43.074Z,6.30
2019-03-16T01:22:44.861Z,6.30
2019-03-16T01:24:46.733Z,6.20
2019-03-16T01:26:48.120Z,6.20
2019-03-16T01:28:49.465Z,6.20
2019-03-16T01:30:50.818Z,6.20
2019-03-16T01:32:52.227Z,6.20
2019-03-16T01:34:53.576Z,6.10
2019-03-16T01:36:55.302Z,6.10
2019-03-16T01:38:56.728Z,6.10
2019-03-16T01:40:58.080Z,6.10
2019-03-16T01:42:59.449Z,6.10
2019-03-16T01:45:00.814Z,6.00
2019-03-16T01:47:02.152Z,6.00
2019-03-16T01:49:03.682Z,6.00
2019-03-16T01:51:05.255Z,6.00
2019-03-16T01:53:06.709Z,6.00
2019-03-16T01:55:08.399Z,6.00
2019-03-16T01:57:09.933Z,6.10
2019-03-16T01:59:11.324Z,6.00
2019-03-16T02:01:12.663Z,6.00
2019-03-16T02:03:14.004Z,6.00
2019-03-16T02:05:15.627Z,6.00
2019-03-16T02:07:17.194Z,6.10
2019-03-16T02:09:18.565Z,6.10
2019-03-16T02:11:19.953Z,6.10
2019-03-16T02:13:21.330Z,6.20
2019-03-16T02:15:22.731Z,6.10
2019-03-16T02:17:24.473Z,6.10
2019-03-16T02:19:26.021Z,6.00
2019-03-16T02:21:27.876Z,6.00
2019-03-16T02:23:29.200Z,6.00
2019-03-16T02:25:30.552Z,6.00
2019-03-16T02:27:31.923Z,5.90
2019-03-16T02:29:33.281Z,5.90
2019-03-16T02:31:34.662Z,5.90
2019-03-16T02:33:36.038Z,5.90
2019-03-16T02:35:37.406Z,5.80
2019-03-16T02:37:38.748Z,5.80
2019-03-16T02:39:40.227Z,5.80
2019-03-16T02:41:41.584Z,5.80
2019-03-16T02:43:42.979Z,5.70
2019-03-16T02:45:44.333Z,5.70
2019-03-16T02:47:45.678Z,5.70
2019-03-16T02:49:47.018Z,5.70
2019-03-16T02:51:48.735Z,5.70
2019-03-16T02:53:50.075Z,5.80
2019-03-16T02:55:51.426Z,5.80
2019-03-16T02:57:52.853Z,5.80
2019-03-16T02:59:54.212Z,5.90
2019-03-16T03:01:55.541Z,5.90
2019-03-16T03:03:56.932Z,5.90
2019-03-16T03:05:58.278Z,5.90
2019-03-16T03:07:59.684Z,5.90
2019-03-16T03:10:01.097Z,5.80
2019-03-16T03:12:02.915Z,5.90
2019-03-16T03:14:10.043Z,5.90
2019-03-16T03:16:11.416Z,5.90
2019-03-16T03:18:12.791Z,5.90
2019-03-16T03:20:14.203Z,5.80
2019-03-16T03:22:15.517Z,5.80
2019-03-16T03:24:16.859Z,5.80
2019-03-16T03:26:18.344Z,5.80
2019-03-16T03:28:19.756Z,5.80
2019-03-16T03:30:21.104Z,5.80
2019-03-16T03:32:22.490Z,5.80
2019-03-16T03:34:23.871Z,5.80
2019-03-16T03:36:25.227Z,5.80
2019-03-16T03:38:26.615Z,5.80
2019-03-16T03:40:27.983Z,5.80
2019-03-16T03:42:29.353Z,5.80
2019-03-16T03:44:30.744Z,5.70
2019-03-16T03:46:32.750Z,5.70
2019-03-16T03:48:34.282Z,5.70
2019-03-16T03:50:36.039Z,5.70
2019-03-16T03:52:37.503Z,5.70
2019-03-16T03:54:38.873Z,5.70
2019-03-16T03:56:40.302Z,5.60
2019-03-16T03:58:41.667Z,5.70
2019-03-16T04:00:43.066Z,5.70
2019-03-16T04:02:44.757Z,5.60
2019-03-16T04:04:46.111Z,5.60
2019-03-16T04:06:47.672Z,5.60
2019-03-16T04:08:49.318Z,5.70
2019-03-16T04:10:50.767Z,5.70
2019-03-16T04:12:54.018Z,5.60
2019-03-16T04:14:57.301Z,5.60
2019-03-16T04:17:00.589Z,5.60
2019-03-16T04:19:03.939Z,5.60
2019-03-16T04:21:23.640Z,5.60
2019-03-16T04:23:43.280Z,5.60
2019-03-16T04:26:03.028Z,5.60
2019-03-16T04:28:23.123Z,5.60
2019-03-16T04:30:42.743Z,5.70
2019-03-16T04:33:02.526Z,5.70
2019-03-16T04:35:22.469Z,5.70
2019-03-16T04:37:42.343Z,5.70
2019-03-16T04:40:04.654Z,5.70
2019-03-16T04:42:24.371Z,5.60
2019-03-16T04:44:44.206Z,5.60
2019-03-16T04:47:04.008Z,5.60
2019-03-16T04:49:23.839Z,5.60
2019-03-16T04:51:43.549Z,5.60
2019-03-16T04:54:03.359Z,5.60
2019-03-16T04:56:23.123Z,5.60
2019-03-16T04:58:43.026Z,5.50
2019-03-16T05:01:02.935Z,5.60
2019-03-16T05:03:22.884Z,5.60
2019-03-16T05:05:42.837Z,5.50
2019-03-16T05:08:03.005Z,5.60
2019-03-16T05:10:22.799Z,5.60
2019-03-16T05:12:42.542Z,5.60
2019-03-16T05:15:05.064Z,5.60
2019-03-16T05:17:25.074Z,5.60
2019-03-16T05:19:45.265Z,5.60
2019-03-16T05:22:05.006Z,5.60
2019-03-16T05:24:24.662Z,5.60
2019-03-16T05:26:44.727Z,5.50
2019-03-16T05:29:04.445Z,5.50
2019-03-16T05:31:24.196Z,5.50
2019-03-16T05:33:43.848Z,5.60
2019-03-16T05:36:03.672Z,5.60
2019-03-16T05:38:23.804Z,5.60
2019-03-16T05:40:43.633Z,5.60
2019-03-16T05:43:03.446Z,5.70
2019-03-16T05:45:23.260Z,5.70
2019-03-16T05:47:43.110Z,5.70
2019-03-16T05:50:07.007Z,5.70
2019-03-16T05:52:26.790Z,5.70
2019-03-16T05:54:46.551Z,5.70
2019-03-16T05:57:06.400Z,5.70
2019-03-16T05:59:26.291Z,5.80
2019-03-16T06:01:46.377Z,5.70
2019-03-16T06:04:06.070Z,5.80
2019-03-16T06:06:27.444Z,5.80
2019-03-16T06:08:47.940Z,5.80
2019-03-16T06:11:07.953Z,5.80
2019-03-16T06:13:27.738Z,5.90
2019-03-16T06:15:47.715Z,5.90
2019-03-16T06:18:07.723Z,5.90
2019-03-16T06:20:27.649Z,6.00
2019-03-16T06:22:47.629Z,5.90
2019-03-16T06:25:08.108Z,6.00
2019-03-16T06:27:28.309Z,6.00
2019-03-16T06:29:48.333Z,6.00
2019-03-16T06:32:08.067Z,6.00
2019-03-16T06:34:27.742Z,6.10
2019-03-16T06:36:47.514Z,6.10
2019-03-16T06:39:07.309Z,6.10
2019-03-16T06:41:27.077Z,6.20
2019-03-16T06:43:46.865Z,6.20
2019-03-16T06:46:06.696Z,6.30
2019-03-16T06:48:26.406Z,6.30
2019-03-16T06:50:46.205Z,6.40
2019-03-16T06:53:06.073Z,6.40
2019-03-16T06:55:25.896Z,6.50
2019-03-16T06:57:45.569Z,6.50
2019-03-16T07:00:12.655Z,6.50
2019-03-16T07:02:32.691Z,6.50
2019-03-16T07:04:52.488Z,6.60
2019-03-16T07:07:12.709Z,6.50
2019-03-16T07:09:32.525Z,6.60
2019-03-16T07:11:52.354Z,6.60
2019-03-16T07:14:12.044Z,6.60
2019-03-16T07:16:31.763Z,6.60
2019-03-16T07:18:58.688Z,6.60
2019-03-16T07:21:13.266Z,6.70
2019-03-16T07:23:33.311Z,6.70
2019-03-16T07:25:53.230Z,6.80
2019-03-16T07:28:13.021Z,6.80
2019-03-16T07:30:32.836Z,6.90
2019-03-16T07:32:52.836Z,6.90
2019-03-16T07:35:12.614Z,6.90
2019-03-16T07:37:32.556Z,6.90
2019-03-16T07:39:52.610Z,6.90
2019-03-16T07:42:12.655Z,7.00
2019-03-16T07:44:32.492Z,7.10
2019-03-16T07:46:52.251Z,7.20
2019-03-16T07:49:11.962Z,7.20
2019-03-16T07:51:31.643Z,7.20
2019-03-16T07:53:51.349Z,7.20
2019-03-16T07:56:11.116Z,7.20
2019-03-16T07:58:30.876Z,7.30
2019-03-16T08:00:50.694Z,7.40
2019-03-16T08:03:10.297Z,7.60
2019-03-16T08:05:30.214Z,7.60
2019-03-16T08:07:50.126Z,7.70
2019-03-16T08:10:10.589Z,7.70
2019-03-16T08:12:32.537Z,7.60
2019-03-16T08:14:52.506Z,7.60
2019-03-16T08:17:12.175Z,7.50
2019-03-16T08:19:31.935Z,7.50
2019-03-16T08:21:51.832Z,7.40
2019-03-16T08:24:11.648Z,7.40
2019-03-16T08:26:31.552Z,7.40
2019-03-16T08:28:51.359Z,7.40
2019-03-16T08:31:11.372Z,7.50
2019-03-16T08:33:31.317Z,7.50
2019-03-16T08:35:51.455Z,7.50
2019-03-16T08:38:11.928Z,7.50
2019-03-16T08:40:31.827Z,7.50
2019-03-16T08:42:51.712Z,7.50
2019-03-16T08:45:11.825Z,7.60
2019-03-16T08:47:31.739Z,7.60
2019-03-16T08:49:51.778Z,7.60
2019-03-16T08:52:11.549Z,7.60
2019-03-16T08:54:31.267Z,7.50
2019-03-16T08:56:50.928Z,7.50
2019-03-16T08:59:10.723Z,7.50
2019-03-16T09:01:30.526Z,7.60
2019-03-16T09:04:10.301Z,7.70
2019-03-16T09:06:31.618Z,7.70
2019-03-16T09:08:54.406Z,7.80
2019-03-16T09:11:14.597Z,7.90
2019-03-16T09:13:34.571Z,8.00
2019-03-16T09:15:54.377Z,8.00
2019-03-16T09:18:14.995Z,8.10
2019-03-16T09:20:34.864Z,8.20
2019-03-16T09:22:54.572Z,8.20
2019-03-16T09:25:14.265Z,8.10
2019-03-16T09:27:34.147Z,8.00
2019-03-16T09:29:54.315Z,8.00
2019-03-16T09:32:14.305Z,8.00
2019-03-16T09:34:34.122Z,8.00
2019-03-16T09:36:53.979Z,8.10
2019-03-16T09:39:13.695Z,8.10
2019-03-16T09:41:33.454Z,8.10
2019-03-16T09:43:53.229Z,8.00
2019-03-16T09:46:13.056Z,8.10
2019-03-16T09:48:33.010Z,8.10
2019-03-16T09:50:52.831Z,8.20
2019-03-16T09:53:12.599Z,8.20
2019-03-16T09:55:35.102Z,8.20
2019-03-16T09:57:54.265Z,8.30
2019-03-16T10:00:15.880Z,8.40
2019-03-16T10:02:35.951Z,8.50
2019-03-16T10:04:55.836Z,8.40
2019-03-16T10:07:15.531Z,8.30
2019-03-16T10:09:35.213Z,8.30
2019-03-16T10:11:55.213Z,8.30
2019-03-16T10:14:15.141Z,8.40
2019-03-16T10:16:35.043Z,8.40
2019-03-16T10:18:55.148Z,8.40
2019-03-16T10:21:15.068Z,8.40
2019-03-16T10:23:35.268Z,8.30
2019-03-16T10:25:54.960Z,8.30
2019-03-16T10:28:14.667Z,8.30
2019-03-16T10:30:34.433Z,8.30
2019-03-16T10:32:54.235Z,8.20
2019-03-16T10:35:13.918Z,8.10
2019-03-16T10:37:33.624Z,8.00
2019-03-16T10:39:53.411Z,7.90
2019-03-16T10:42:13.324Z,7.80
2019-03-16T10:44:33.114Z,7.80
2019-03-16T10:46:52.916Z,7.90
2019-03-16T10:49:12.695Z,7.80
2019-03-16T10:51:32.468Z,7.60
2019-03-16T10:53:52.397Z,7.30
2019-03-16T10:56:12.572Z,7.10
2019-03-16T10:58:32.517Z,7.00
2019-03-16T11:00:52.506Z,7.00
2019-03-16T11:03:12.450Z,7.00
2019-03-16T11:05:32.507Z,6.90
2019-03-16T11:07:53.207Z,6.90
2019-03-16T11:10:13.396Z,6.80
2019-03-16T11:12:33.442Z,6.70
2019-03-16T11:14:53.360Z,6.70
2019-03-16T11:17:13.258Z,6.60
2019-03-16T11:19:32.944Z,6.60
2019-03-16T11:21:52.750Z,6.50
2019-03-16T11:24:12.481Z,6.40
2019-03-16T11:26:32.284Z,6.40
2019-03-16T11:28:52.019Z,6.40
2019-03-16T11:31:11.840Z,6.30
2019-03-16T11:33:31.561Z,6.40
2019-03-16T11:35:51.407Z,6.30
2019-03-16T11:38:11.247Z,6.20
2019-03-16T11:40:31.039Z,6.20
2019-03-16T11:42:50.749Z,6.10
2019-03-16T11:45:11.126Z,6.10
2019-03-16T11:47:30.853Z,6.10
2019-03-16T11:49:50.652Z,6.10
2019-03-16T11:52:10.527Z,6.00
2019-03-16T11:54:30.830Z,6.00
2019-03-16T11:56:50.796Z,6.00
2019-03-16T11:59:21.078Z,6.10
2019-03-16T12:01:32.664Z,6.00
2019-03-16T12:03:52.531Z,6.00
2019-03-16T12:06:12.427Z,6.00
2019-03-16T12:08:32.433Z,6.00
2019-03-16T12:10:52.266Z,5.90
2019-03-16T12:13:17.120Z,5.70
2019-03-16T12:15:34.005Z,5.70
2019-03-16T12:17:53.760Z,5.70
2019-03-16T12:20:17.860Z,5.70
2019-03-16T12:22:37.218Z,5.60
2019-03-16T12:24:57.294Z,5.60
2019-03-16T12:27:17.194Z,5.60
2019-03-16T12:29:38.021Z,5.60
2019-03-16T12:31:58.244Z,5.70
2019-03-16T12:34:18.035Z,5.70
2019-03-16T12:36:37.803Z,5.70
2019-03-16T12:38:57.610Z,5.80
2019-03-16T12:41:17.354Z,5.70
2019-03-16T12:43:37.059Z,5.70
2019-03-16T12:45:57.108Z,5.60
2019-03-16T12:48:17.220Z,5.60
2019-03-16T12:50:36.953Z,5.60
2019-03-16T12:52:56.765Z,5.60
2019-03-16T12:55:36.355Z,5.60
2019-03-16T12:57:56.211Z,5.70
2019-03-16T13:00:17.600Z,5.60
2019-03-16T13:02:37.643Z,5.80
2019-03-16T13:04:57.361Z,5.80
2019-03-16T13:07:17.137Z,5.80
2019-03-16T13:09:37.033Z,5.70
2019-03-16T13:11:56.898Z,5.70
2019-03-16T13:14:16.707Z,5.70
2019-03-16T13:16:37.382Z,5.70
2019-03-16T13:18:57.439Z,5.50
2019-03-16T13:21:17.250Z,5.50
2019-03-16T13:23:36.941Z,5.50
2019-03-16T13:25:56.806Z,5.50
2019-03-16T13:28:16.637Z,5.50
2019-03-16T13:30:36.545Z,5.60
2019-03-16T13:32:56.593Z,5.60
2019-03-16T13:35:16.721Z,5.60
2019-03-16T13:37:36.657Z,5.70
2019-03-16T13:39:56.576Z,5.70
2019-03-16T13:42:16.505Z,5.60
2019-03-16T13:44:36.268Z,5.70
2019-03-16T13:46:56.041Z,5.70
2019-03-16T13:49:15.895Z,5.80
2019-03-16T13:51:35.683Z,5.90
2019-03-16T13:53:55.504Z,5.90
2019-03-16T13:56:15.351Z,5.90
2019-03-16T13:58:35.522Z,5.90
2019-03-16T14:00:55.289Z,6.00
2019-03-16T14:03:15.066Z,6.00
2019-03-16T14:05:34.865Z,5.90
2019-03-16T14:07:54.586Z,5.90
2019-03-16T14:10:31.505Z,5.80
2019-03-16T14:12:51.581Z,5.90
2019-03-16T14:15:11.511Z,6.00
2019-03-16T14:17:31.791Z,5.90
2019-03-16T14:19:51.539Z,6.00
2019-03-16T14:22:11.398Z,6.00
2019-03-16T14:24:31.348Z,5.90
2019-03-16T14:26:51.791Z,5.90
2019-03-16T14:29:11.733Z,5.90
2019-03-16T14:31:31.708Z,6.00
2019-03-16T14:33:51.625Z,6.00
2019-03-16T14:36:11.663Z,6.00
2019-03-16T14:38:32.023Z,6.00
2019-03-16T14:40:51.840Z,6.00
2019-03-16T14:43:11.684Z,6.10
2019-03-16T14:45:31.814Z,6.00
2019-03-16T14:47:51.511Z,5.90
2019-03-16T14:50:22.924Z,6.00
2019-03-16T14:52:42.832Z,5.90
2019-03-16T14:55:04.267Z,6.00
2019-03-16T14:57:23.904Z,6.00
2019-03-16T14:59:43.661Z,5.90
2019-03-16T15:02:03.512Z,5.90
2019-03-16T15:04:23.322Z,5.80
2019-03-16T15:06:43.157Z,5.80
2019-03-16T15:09:05.255Z,6.00
2019-03-16T15:11:25.293Z,6.00
2019-03-16T15:14:05.042Z,6.00
2019-03-16T15:16:46.260Z,6.00
2019-03-16T15:19:27.412Z,6.00
2019-03-16T15:22:08.577Z,6.00
2019-03-16T15:24:49.764Z,6.00
2019-03-16T15:27:31.100Z,6.00
2019-03-16T15:30:34.057Z,5.90
2019-03-16T15:33:15.196Z,6.00
2019-03-16T15:35:56.493Z,6.00
2019-03-16T15:38:37.670Z,6.00
2019-03-16T15:41:11.913Z,6.10
2019-03-16T15:43:46.969Z,6.20
2019-03-16T15:46:28.163Z,6.20
2019-03-16T15:49:09.405Z,6.20
2019-03-16T15:51:50.545Z,6.30
2019-03-16T15:54:31.728Z,6.30
2019-03-16T15:57:12.952Z,6.30
2019-03-16T15:59:54.088Z,6.30
2019-03-16T16:02:35.276Z,6.40
2019-03-16T16:05:16.438Z,6.40
2019-03-16T16:07:57.611Z,6.40
2019-03-16T16:10:40.640Z,6.40
2019-03-16T16:13:21.858Z,6.30
2019-03-16T16:16:03.099Z,6.30
2019-03-16T16:18:44.304Z,6.40
2019-03-16T16:21:25.486Z,6.40
2019-03-16T16:24:06.626Z,6.50
2019-03-16T16:26:48.068Z,6.50
2019-03-16T16:29:29.271Z,6.50
2019-03-16T16:32:10.454Z,6.50
2019-03-16T16:34:51.594Z,6.60
2019-03-16T16:37:32.782Z,6.60
2019-03-16T16:43:37.035Z,6.60
2019-03-16T16:46:11.464Z,6.70
2019-03-16T16:48:52.842Z,6.70
2019-03-16T16:51:33.994Z,6.80
2019-03-16T16:54:15.163Z,6.80
2019-03-16T16:56:35.096Z,6.80
2019-03-16T16:58:54.850Z,6.80
2019-03-16T17:01:14.831Z,6.80
2019-03-16T17:03:34.599Z,6.80
2019-03-16T17:05:54.351Z,6.90
2019-03-16T17:08:14.099Z,6.90
2019-03-16T17:10:33.983Z,6.90
2019-03-16T17:12:53.819Z,6.90
2019-03-16T17:15:17.319Z,6.90
2019-03-16T17:17:37.330Z,7.00
2019-03-16T17:19:56.999Z,7.00
2019-03-16T17:22:16.910Z,7.00
2019-03-16T17:24:36.827Z,7.00
2019-03-16T17:26:56.859Z,7.10
2019-03-16T17:29:16.832Z,7.10
2019-03-16T17:31:42.205Z,7.10
2019-03-16T17:33:58.982Z,7.10
2019-03-16T17:36:22.044Z,7.10
2019-03-16T17:38:40.981Z,7.10
2019-03-16T17:41:00.937Z,7.20
2019-03-16T17:43:20.925Z,7.20
2019-03-16T17:45:41.015Z,7.30
2019-03-16T17:48:00.932Z,7.30
2019-03-16T17:50:20.837Z,7.30
2019-03-16T17:52:40.884Z,7.30
2019-03-16T17:55:01.073Z,7.40
2019-03-16T17:57:20.876Z,7.40
2019-03-16T17:59:40.609Z,7.40
2019-03-16T18:02:00.260Z,7.40
2019-03-16T18:04:19.964Z,7.50
2019-03-16T18:06:39.870Z,7.50
2019-03-16T18:09:01.863Z,7.50
2019-03-16T18:11:21.433Z,7.50
2019-03-16T18:13:41.558Z,7.60
2019-03-16T18:16:01.349Z,7.60
2019-03-16T18:18:21.078Z,7.70
2019-03-16T18:20:40.772Z,7.70
2019-03-16T18:23:00.495Z,7.80
2019-03-16T18:25:20.336Z,7.80
2019-03-16T18:27:40.150Z,7.90
2019-03-16T18:30:00.394Z,8.00
2019-03-16T18:32:20.592Z,8.00
2019-03-16T18:34:40.361Z,8.00
2019-03-16T18:37:00.334Z,8.00
2019-03-16T18:39:20.360Z,8.10
2019-03-16T18:41:40.640Z,8.10
2019-03-16T18:44:00.687Z,8.20
2019-03-16T18:46:20.632Z,8.20
2019-03-16T18:48:40.585Z,8.30
2019-03-16T18:51:00.919Z,8.30
2019-03-16T18:53:20.889Z,8.40
2019-03-16T18:55:40.679Z,8.40
2019-03-16T18:58:00.417Z,8.40
2019-03-16T19:00:20.212Z,8.50
2019-03-16T19:02:39.846Z,8.50
2019-03-16T19:04:59.633Z,8.50
2019-03-16T19:07:19.339Z,8.60
2019-03-16T19:09:39.074Z,8.60
2019-03-16T19:11:58.843Z,8.60
2019-03-16T19:14:18.660Z,8.70
2019-03-16T19:16:40.037Z,8.70
2019-03-16T19:18:59.874Z,8.70
2019-03-16T19:21:19.780Z,8.80
2019-03-16T19:23:39.625Z,8.90
2019-03-16T19:25:59.444Z,8.90
2019-03-16T19:28:19.076Z,9.00
2019-03-16T19:30:39.095Z,8.90
2019-03-16T19:32:58.980Z,9.00
2019-03-16T19:35:18.839Z,9.00
2019-03-16T19:37:39.088Z,9.00
2019-03-16T19:39:59.438Z,9.00
2019-03-16T19:42:19.452Z,9.00
2019-03-16T19:44:39.515Z,8.90
2019-03-16T19:46:59.437Z,8.90
2019-03-16T19:49:19.122Z,8.90
2019-03-16T19:51:38.986Z,8.90
2019-03-16T19:53:59.169Z,8.90
2019-03-16T19:56:19.667Z,8.90
2019-03-16T19:58:39.729Z,8.90
2019-03-16T20:00:59.855Z,8.90
2019-03-16T20:03:20.123Z,8.90
2019-03-16T20:05:40.110Z,8.80
2019-03-16T20:08:00.873Z,8.80
2019-03-16T20:10:20.695Z,8.80
2019-03-16T20:12:40.975Z,8.80
2019-03-16T20:15:01.114Z,8.90
2019-03-16T20:17:21.234Z,8.90
2019-03-16T20:19:41.250Z,8.90
2019-03-16T20:22:01.049Z,8.90
2019-03-16T20:24:20.961Z,8.90
2019-03-16T20:26:40.777Z,8.90
2019-03-16T20:29:00.609Z,8.90
2019-03-16T20:31:20.366Z,8.90
2019-03-16T20:33:40.255Z,8.80
2019-03-16T20:36:00.078Z,8.80
2019-03-16T20:38:20.038Z,8.80
2019-03-16T20:40:40.145Z,8.80
2019-03-16T20:43:00.270Z,8.80
2019-03-16T20:45:20.321Z,8.80
2019-03-16T20:47:40.561Z,8.80
2019-03-16T20:50:00.784Z,8.80
2019-03-16T20:52:20.948Z,8.70
2019-03-16T20:54:40.742Z,8.70
2019-03-16T20:57:00.505Z,8.70
2019-03-16T20:59:20.153Z,8.70
2019-03-16T21:01:39.968Z,8.70
2019-03-16T21:03:59.647Z,8.70
2019-03-16T21:06:19.394Z,8.80
2019-03-16T21:08:39.207Z,8.80
2019-03-16T21:10:59.021Z,8.80
2019-03-16T21:13:18.795Z,8.80
2019-03-16T21:15:38.505Z,8.80
2019-03-16T21:17:58.243Z,8.80
2019-03-16T21:20:18.947Z,8.80
2019-03-16T21:22:39.360Z,8.80
2019-03-16T21:24:59.333Z,8.80
2019-03-16T21:27:19.097Z,8.80
2019-03-16T21:29:39.008Z,8.80
2019-03-16T21:31:58.949Z,8.80
2019-03-16T21:34:18.923Z,8.80
2019-03-16T21:36:41.738Z,8.70
2019-03-16T21:39:00.864Z,8.70
2019-03-16T21:41:20.802Z,8.70
2019-03-16T21:43:40.737Z,8.70
2019-03-16T21:46:00.731Z,8.80
2019-03-16T21:48:20.706Z,8.80
2019-03-16T21:50:40.535Z,8.70
2019-03-16T21:53:00.227Z,8.70
2019-03-16T21:55:19.989Z,8.70
2019-03-16T21:57:39.837Z,8.60
2019-03-16T21:59:59.521Z,8.60
2019-03-16T22:02:19.426Z,8.60
2019-03-16T22:04:39.215Z,8.60
2019-03-16T22:06:58.948Z,8.50
2019-03-16T22:09:19.155Z,8.60
2019-03-16T22:11:39.083Z,8.50
2019-03-16T22:13:58.835Z,8.50
2019-03-16T22:16:18.667Z,8.50
2019-03-16T22:18:38.410Z,8.50
2019-03-16T22:20:58.501Z,8.50
2019-03-16T22:23:18.476Z,8.50
2019-03-16T22:25:38.247Z,8.50
2019-03-16T22:27:58.218Z,8.50
2019-03-16T22:30:18.247Z,8.40
2019-03-16T22:32:38.619Z,8.40
2019-03-16T22:34:58.550Z,8.40
2019-03-16T22:37:18.301Z,8.50
2019-03-16T22:39:38.116Z,8.50
2019-03-16T22:41:57.863Z,8.50
2019-03-16T22:44:17.826Z,8.50
2019-03-16T22:46:38.056Z,8.50
2019-03-16T22:48:58.216Z,8.50
2019-03-16T22:51:17.847Z,8.50
2019-03-16T22:53:37.716Z,8.50
2019-03-16T22:55:57.508Z,8.40
2019-03-16T22:58:17.226Z,8.40
2019-03-16T23:00:50.956Z,8.40
2019-03-16T23:03:10.998Z,8.40
2019-03-16T23:05:31.190Z,8.40
2019-03-16T23:07:50.865Z,8.40
2019-03-16T23:10:11.529Z,8.40
2019-03-16T23:12:31.780Z,8.40
2019-03-16T23:14:51.557Z,8.40
2019-03-16T23:17:11.887Z,8.40
2019-03-16T23:19:32.005Z,8.40
2019-03-16T23:21:52.390Z,8.40
2019-03-16T23:24:12.235Z,8.40
2019-03-16T23:26:38.442Z,8.30
2019-03-16T23:28:54.216Z,8.30
2019-03-16T23:31:14.086Z,8.30
2019-03-16T23:33:34.090Z,8.30
2019-03-16T23:35:54.099Z,8.30
2019-03-16T23:38:14.018Z,8.30
2019-03-16T23:40:33.843Z,8.30
2019-03-16T23:42:53.567Z,8.30
2019-03-16T23:45:13.546Z,8.30
2019-03-16T23:47:33.607Z,8.30
2019-03-16T23:49:53.326Z,8.20
2019-03-16T23:52:13.015Z,8.20
2019-03-16T23:54:32.691Z,8.20
2019-03-16T23:56:52.612Z,8.20
2019-03-16T23:59:12.377Z,8.20
